createdAt,value
2017-09-16T00:00:05.683Z,0
2017-09-16T00:01:07.073Z,0
2017-09-16T00:02:08.460Z,0
2017-09-16T00:03:09.846Z,0
2017-09-16T00:04:11.235Z,0
2017-09-16T00:05:12.620Z,0
2017-09-16T00:06:14.003Z,0
2017-09-16T00:07:15.388Z,0
2017-09-16T00:08:16.776Z,0
2017-09-16T00:09:18.170Z,0
2017-09-16T00:10:19.554Z,0
2017-09-16T00:11:20.940Z,0
2017-09-16T00:12:22.330Z,0
2017-09-16T00:13:23.713Z,0
2017-09-16T00:14:25.102Z,0
2017-09-16T00:15:26.490Z,0
2017-09-16T00:16:27.877Z,0
2017-09-16T00:17:29.262Z,0
2017-09-16T00:18:30.649Z,0
2017-09-16T00:19:32.034Z,0
2017-09-16T00:20:33.420Z,0
2017-09-16T00:21:34.807Z,0
2017-09-16T00:22:36.197Z,0
2017-09-16T00:23:37.587Z,0
2017-09-16T00:24:38.969Z,0
2017-09-16T00:25:40.356Z,0
2017-09-16T00:26:41.738Z,0
2017-09-16T00:27:43.128Z,0
2017-09-16T00:28:44.514Z,0
2017-09-16T00:29:45.909Z,0
2017-09-16T00:30:47.290Z,0
2017-09-16T00:31:48.676Z,0
2017-09-16T00:32:50.063Z,0
2017-09-16T00:33:51.448Z,0
2017-09-16T00:34:52.833Z,0
2017-09-16T00:35:54.222Z,0
2017-09-16T00:36:55.612Z,0
2017-09-16T00:37:56.999Z,0
2017-09-16T00:38:58.384Z,0
2017-09-16T00:39:59.771Z,0
2017-09-16T00:41:01.158Z,0
2017-09-16T00:42:02.558Z,0
2017-09-16T00:43:03.933Z,0
2017-09-16T00:44:05.319Z,0
2017-09-16T00:45:06.706Z,0
2017-09-16T00:46:08.090Z,0
2017-09-16T00:47:09.546Z,0
2017-09-16T00:48:10.944Z,0
2017-09-16T00:49:12.339Z,0
2017-09-16T00:50:13.725Z,0
2017-09-16T00:51:15.112Z,0
2017-09-16T00:52:16.505Z,0
2017-09-16T00:53:17.884Z,0
2017-09-16T00:54:19.272Z,0
2017-09-16T00:55:20.658Z,0
2017-09-16T00:56:22.043Z,0
2017-09-16T00:57:23.428Z,0
2017-09-16T00:58:24.814Z,0
2017-09-16T00:59:26.203Z,0
2017-09-16T01:00:27.589Z,0
2017-09-16T01:01:28.973Z,0
2017-09-16T01:02:30.358Z,0
2017-09-16T01:03:31.745Z,0
2017-09-16T01:04:33.132Z,0
2017-09-16T01:05:35.907Z,0
2017-09-16T01:06:37.337Z,0
2017-09-16T01:07:38.722Z,0
2017-09-16T01:08:40.114Z,0
2017-09-16T01:09:41.497Z,0
2017-09-16T01:10:42.882Z,0
2017-09-16T01:11:44.275Z,0
2017-09-16T01:12:45.657Z,0
2017-09-16T01:13:47.044Z,0
2017-09-16T01:14:48.429Z,0
2017-09-16T01:15:49.811Z,0
2017-09-16T01:16:51.197Z,0
2017-09-16T01:17:52.582Z,0
2017-09-16T01:18:53.969Z,0
2017-09-16T01:19:55.357Z,0
2017-09-16T01:20:57.329Z,0
2017-09-16T01:21:58.716Z,0
2017-09-16T01:23:00.095Z,0
2017-09-16T01:24:01.482Z,0
2017-09-16T01:25:02.870Z,0
2017-09-16T01:26:04.248Z,0
2017-09-16T01:27:05.638Z,0
2017-09-16T01:28:07.023Z,0
2017-09-16T01:29:08.406Z,0
2017-09-16T01:30:09.793Z,0
2017-09-16T01:31:11.178Z,0
2017-09-16T01:32:12.563Z,0
2017-09-16T01:33:13.951Z,0
2017-09-16T01:34:15.335Z,0
2017-09-16T01:35:16.720Z,0
2017-09-16T01:36:18.124Z,0
2017-09-16T01:37:21.344Z,0
2017-09-16T01:38:22.730Z,0
2017-09-16T01:39:24.118Z,0
2017-09-16T01:40:25.502Z,0
2017-09-16T01:41:26.889Z,0
2017-09-16T01:42:28.275Z,0
2017-09-16T01:43:29.656Z,0
2017-09-16T01:44:31.042Z,0
2017-09-16T01:45:32.428Z,0
2017-09-16T01:46:33.815Z,0
2017-09-16T01:47:35.202Z,0
2017-09-16T01:48:36.587Z,0
2017-09-16T01:49:37.971Z,0
2017-09-16T01:50:39.355Z,0
2017-09-16T01:51:40.737Z,0
2017-09-16T01:52:42.123Z,0
2017-09-16T01:53:43.509Z,0
2017-09-16T01:54:44.893Z,0
2017-09-16T01:55:46.279Z,0
2017-09-16T01:56:47.668Z,0
2017-09-16T01:57:49.053Z,0
2017-09-16T01:58:50.439Z,0
2017-09-16T01:59:51.822Z,0
2017-09-16T02:00:53.209Z,0
2017-09-16T02:01:54.588Z,0
2017-09-16T02:02:55.976Z,0
2017-09-16T02:03:57.362Z,0
2017-09-16T02:04:58.743Z,0
2017-09-16T02:06:00.132Z,0
2017-09-16T02:07:01.516Z,0
2017-09-16T02:08:02.903Z,0
2017-09-16T02:09:04.286Z,0
2017-09-16T02:10:05.674Z,0
2017-09-16T02:11:07.061Z,0
2017-09-16T02:12:08.442Z,0
2017-09-16T02:13:09.828Z,0
2017-09-16T02:14:11.212Z,0
2017-09-16T02:15:12.599Z,0
2017-09-16T02:16:13.985Z,0
2017-09-16T02:17:15.370Z,0
2017-09-16T02:18:16.755Z,0
2017-09-16T02:19:18.140Z,0
2017-09-16T02:20:19.526Z,0
2017-09-16T02:21:20.910Z,0
2017-09-16T02:22:22.296Z,0
2017-09-16T02:23:23.681Z,0
2017-09-16T02:24:25.067Z,0
2017-09-16T02:25:26.475Z,0
2017-09-16T02:26:27.874Z,0
2017-09-16T02:27:29.261Z,0
2017-09-16T02:28:30.645Z,0
2017-09-16T02:29:32.030Z,0
2017-09-16T02:30:33.413Z,0
2017-09-16T02:31:34.800Z,0
2017-09-16T02:32:36.189Z,0
2017-09-16T02:33:37.574Z,0
2017-09-16T02:34:38.948Z,0
2017-09-16T02:35:40.335Z,0
2017-09-16T02:36:41.719Z,0
2017-09-16T02:37:43.105Z,0
2017-09-16T02:38:44.488Z,0
2017-09-16T02:39:45.875Z,0
2017-09-16T02:40:47.257Z,0
2017-09-16T02:41:48.643Z,0
2017-09-16T02:42:50.025Z,0
2017-09-16T02:43:51.439Z,0
2017-09-16T02:44:52.806Z,0
2017-09-16T02:45:54.196Z,0
2017-09-16T02:46:55.580Z,0
2017-09-16T02:47:56.964Z,0
2017-09-16T02:48:58.347Z,0
2017-09-16T02:49:59.732Z,0
2017-09-16T02:51:01.119Z,0
2017-09-16T02:52:02.511Z,0
2017-09-16T02:53:03.895Z,0
2017-09-16T02:54:05.277Z,0
2017-09-16T02:55:06.660Z,0
2017-09-16T02:56:08.046Z,0
2017-09-16T02:57:09.431Z,0
2017-09-16T02:58:10.814Z,0
2017-09-16T02:59:12.200Z,0
2017-09-16T03:00:13.584Z,0
2017-09-16T03:01:14.971Z,0
2017-09-16T03:02:16.353Z,0
2017-09-16T03:03:17.737Z,0
2017-09-16T03:04:19.123Z,0
2017-09-16T03:05:20.508Z,0
2017-09-16T03:06:21.893Z,0
2017-09-16T03:07:23.274Z,0
2017-09-16T03:08:24.658Z,0
2017-09-16T03:09:26.040Z,0
2017-09-16T03:10:27.425Z,0
2017-09-16T03:11:28.809Z,0
2017-09-16T03:12:30.191Z,0
2017-09-16T03:13:31.579Z,0
2017-09-16T03:14:32.963Z,0
2017-09-16T03:15:34.346Z,0
2017-09-16T03:16:35.732Z,0
2017-09-16T03:17:37.122Z,0
2017-09-16T03:18:38.515Z,0
2017-09-16T03:19:39.900Z,0
2017-09-16T03:20:41.285Z,0
2017-09-16T03:21:42.672Z,0
2017-09-16T03:22:44.057Z,0
2017-09-16T03:23:45.439Z,0
2017-09-16T03:24:46.822Z,0
2017-09-16T03:25:48.206Z,0
2017-09-16T03:26:49.590Z,0
2017-09-16T03:27:50.973Z,0
2017-09-16T03:28:52.358Z,0
2017-09-16T03:29:53.746Z,0
2017-09-16T03:30:55.130Z,0
2017-09-16T03:31:56.511Z,0
2017-09-16T03:32:57.902Z,0
2017-09-16T03:33:59.285Z,0
2017-09-16T03:35:00.668Z,0
2017-09-16T03:36:02.053Z,0
2017-09-16T03:37:03.440Z,0
2017-09-16T03:38:04.824Z,0
2017-09-16T03:39:06.206Z,0
2017-09-16T03:40:07.590Z,0
2017-09-16T03:41:08.976Z,0
2017-09-16T03:42:10.365Z,0
2017-09-16T03:43:11.748Z,0
2017-09-16T03:44:13.131Z,0
2017-09-16T03:45:14.512Z,0
2017-09-16T03:46:15.896Z,0
2017-09-16T03:47:17.282Z,0
2017-09-16T03:48:18.665Z,0
2017-09-16T03:49:20.047Z,0
2017-09-16T03:50:21.431Z,0
2017-09-16T03:51:22.819Z,0
2017-09-16T03:52:24.201Z,0
2017-09-16T03:53:25.584Z,0
2017-09-16T03:54:26.968Z,0
2017-09-16T03:55:28.353Z,0
2017-09-16T03:56:29.741Z,0
2017-09-16T03:57:31.128Z,0
2017-09-16T03:58:32.511Z,0
2017-09-16T03:59:33.895Z,0
2017-09-16T04:00:35.276Z,0
2017-09-16T04:01:36.666Z,0
2017-09-16T04:02:38.040Z,0
2017-09-16T04:03:39.425Z,0
2017-09-16T04:04:40.809Z,0
2017-09-16T04:05:42.198Z,0
2017-09-16T04:06:43.578Z,0
2017-09-16T04:07:44.962Z,0
2017-09-16T04:08:46.347Z,0
2017-09-16T04:09:47.730Z,0
2017-09-16T04:10:49.117Z,0
2017-09-16T04:11:50.514Z,0
2017-09-16T04:12:51.900Z,0
2017-09-16T04:13:53.283Z,0
2017-09-16T04:14:54.666Z,0
2017-09-16T04:15:56.050Z,0
2017-09-16T04:16:57.436Z,0
2017-09-16T04:17:58.819Z,0
2017-09-16T04:19:00.206Z,0
2017-09-16T04:20:01.594Z,0
2017-09-16T04:21:02.979Z,0
2017-09-16T04:22:04.361Z,0
2017-09-16T04:23:05.752Z,0
2017-09-16T04:24:07.129Z,0
2017-09-16T04:25:08.515Z,0
2017-09-16T04:26:09.900Z,0
2017-09-16T04:27:11.287Z,0
2017-09-16T04:28:12.670Z,0
2017-09-16T04:29:14.054Z,0
2017-09-16T04:30:15.440Z,0
2017-09-16T04:31:16.824Z,0
2017-09-16T04:32:18.210Z,0
2017-09-16T04:33:19.596Z,0
2017-09-16T04:34:20.983Z,0
2017-09-16T04:35:23.302Z,0
2017-09-16T04:36:24.685Z,0
2017-09-16T04:37:26.070Z,0
2017-09-16T04:38:27.454Z,0
2017-09-16T04:39:28.842Z,0
2017-09-16T04:40:30.224Z,0
2017-09-16T04:41:31.614Z,0
2017-09-16T04:42:32.993Z,0
2017-09-16T04:43:34.377Z,0
2017-09-16T04:44:35.762Z,4
2017-09-16T04:45:37.147Z,4
2017-09-16T04:46:38.533Z,4
2017-09-16T04:47:39.920Z,0
2017-09-16T04:48:41.310Z,0
2017-09-16T04:49:42.692Z,4
2017-09-16T04:50:44.075Z,4
2017-09-16T04:51:45.459Z,4
2017-09-16T04:52:46.840Z,4
2017-09-16T04:53:48.228Z,4
2017-09-16T04:54:49.611Z,8
2017-09-16T04:55:50.998Z,8
2017-09-16T04:56:52.384Z,8
2017-09-16T04:57:53.771Z,12
2017-09-16T04:58:55.155Z,12
2017-09-16T04:59:56.541Z,16
2017-09-16T05:00:57.925Z,16
2017-09-16T05:01:59.309Z,20
2017-09-16T05:03:00.702Z,24
2017-09-16T05:04:02.087Z,24
2017-09-16T05:05:03.474Z,28
2017-09-16T05:06:04.858Z,32
2017-09-16T05:07:06.241Z,36
2017-09-16T05:08:07.628Z,44
2017-09-16T05:09:09.015Z,48
2017-09-16T05:10:10.404Z,52
2017-09-16T05:11:11.786Z,60
2017-09-16T05:12:13.171Z,64
2017-09-16T05:13:14.556Z,72
2017-09-16T05:14:15.939Z,80
2017-09-16T05:15:17.326Z,88
2017-09-16T05:16:18.715Z,96
2017-09-16T05:17:20.131Z,104
2017-09-16T05:18:21.495Z,112
2017-09-16T05:19:22.880Z,124
2017-09-16T05:20:24.267Z,132
2017-09-16T05:21:25.655Z,144
2017-09-16T05:22:27.040Z,152
2017-09-16T05:23:28.427Z,160
2017-09-16T05:24:29.817Z,172
2017-09-16T05:25:31.206Z,180
2017-09-16T05:26:32.588Z,192
2017-09-16T05:27:33.973Z,204
2017-09-16T05:28:35.359Z,216
2017-09-16T05:29:36.750Z,224
2017-09-16T05:30:38.139Z,236
2017-09-16T05:31:39.626Z,244
2017-09-16T05:32:41.009Z,256
2017-09-16T05:33:42.396Z,264
2017-09-16T05:34:43.782Z,276
2017-09-16T05:35:45.170Z,284
2017-09-16T05:36:46.560Z,300
2017-09-16T05:37:47.946Z,312
2017-09-16T05:38:49.341Z,324
2017-09-16T05:39:50.734Z,332
2017-09-16T05:40:52.116Z,344
2017-09-16T05:41:53.506Z,356
2017-09-16T05:42:55.000Z,368
2017-09-16T05:43:56.390Z,372
2017-09-16T05:44:57.777Z,384
2017-09-16T05:45:59.166Z,392
2017-09-16T05:47:00.553Z,404
2017-09-16T05:48:01.939Z,416
2017-09-16T05:49:03.328Z,428
2017-09-16T05:50:04.714Z,440
2017-09-16T05:51:06.101Z,456
2017-09-16T05:52:07.496Z,468
2017-09-16T05:53:08.884Z,484
2017-09-16T05:54:10.273Z,492
2017-09-16T05:55:11.741Z,500
2017-09-16T05:56:13.146Z,512
2017-09-16T05:57:14.529Z,520
2017-09-16T05:58:15.920Z,528
2017-09-16T05:59:17.307Z,536
2017-09-16T06:00:18.695Z,548
2017-09-16T06:01:20.083Z,556
2017-09-16T06:02:21.469Z,568
2017-09-16T06:03:22.876Z,572
2017-09-16T06:04:24.392Z,584
2017-09-16T06:05:25.788Z,592
2017-09-16T06:06:27.177Z,600
2017-09-16T06:07:28.567Z,608
2017-09-16T06:08:29.959Z,616
2017-09-16T06:09:31.345Z,624
2017-09-16T06:10:32.729Z,632
2017-09-16T06:11:34.121Z,636
2017-09-16T06:12:35.512Z,648
2017-09-16T06:13:36.902Z,652
2017-09-16T06:14:39.876Z,660
2017-09-16T06:15:41.259Z,668
2017-09-16T06:16:42.649Z,676
2017-09-16T06:17:44.038Z,688
2017-09-16T06:18:45.429Z,692
2017-09-16T06:19:46.818Z,704
2017-09-16T06:20:48.209Z,708
2017-09-16T06:21:49.647Z,716
2017-09-16T06:22:51.086Z,720
2017-09-16T06:23:52.516Z,732
2017-09-16T06:24:53.886Z,740
2017-09-16T06:25:55.277Z,748
2017-09-16T06:26:56.668Z,756
2017-09-16T06:27:58.062Z,764
2017-09-16T06:28:59.452Z,772
2017-09-16T06:30:00.842Z,776
2017-09-16T06:31:02.235Z,784
2017-09-16T06:32:03.622Z,792
2017-09-16T06:33:05.019Z,800
2017-09-16T06:34:06.423Z,804
2017-09-16T06:35:07.797Z,808
2017-09-16T06:36:09.188Z,816
2017-09-16T06:37:10.575Z,820
2017-09-16T06:38:11.966Z,832
2017-09-16T06:39:13.353Z,836
2017-09-16T06:40:14.744Z,840
2017-09-16T06:41:16.135Z,848
2017-09-16T06:42:17.525Z,856
2017-09-16T06:43:18.916Z,864
2017-09-16T06:44:20.304Z,868
2017-09-16T06:45:21.693Z,880
2017-09-16T06:46:23.081Z,888
2017-09-16T06:47:24.474Z,884
2017-09-16T06:48:25.861Z,888
2017-09-16T06:49:27.254Z,888
2017-09-16T06:50:28.647Z,896
2017-09-16T06:51:30.036Z,904
2017-09-16T06:52:31.423Z,908
2017-09-16T06:53:32.817Z,912
2017-09-16T06:54:34.203Z,916
2017-09-16T06:55:35.592Z,924
2017-09-16T06:56:36.987Z,932
2017-09-16T06:57:38.378Z,940
2017-09-16T06:58:39.766Z,944
2017-09-16T06:59:41.155Z,952
2017-09-16T07:00:42.550Z,956
2017-09-16T07:01:43.937Z,960
2017-09-16T07:02:45.327Z,964
2017-09-16T07:03:46.721Z,968
2017-09-16T07:04:48.117Z,976
2017-09-16T07:05:49.504Z,980
2017-09-16T07:06:50.896Z,988
2017-09-16T07:07:52.285Z,996
2017-09-16T07:08:53.675Z,1000
2017-09-16T07:09:55.066Z,1008
2017-09-16T07:10:56.474Z,1016
2017-09-16T07:11:57.852Z,1024
2017-09-16T07:12:59.251Z,1028
2017-09-16T07:14:00.643Z,1036
2017-09-16T07:15:02.034Z,1044
2017-09-16T07:16:03.424Z,1052
2017-09-16T07:17:04.818Z,1056
2017-09-16T07:18:06.210Z,1068
2017-09-16T07:19:07.599Z,1072
2017-09-16T07:20:08.995Z,1076
2017-09-16T07:21:10.381Z,1088
2017-09-16T07:22:11.777Z,1088
2017-09-16T07:23:13.169Z,1096
2017-09-16T07:24:14.560Z,1104
2017-09-16T07:25:15.950Z,1108
2017-09-16T07:26:17.342Z,1108
2017-09-16T07:27:18.730Z,1116
2017-09-16T07:28:20.120Z,1128
2017-09-16T07:29:21.511Z,1132
2017-09-16T07:30:22.903Z,1140
2017-09-16T07:31:24.296Z,1144
2017-09-16T07:32:25.688Z,1144
2017-09-16T07:33:27.085Z,1152
2017-09-16T07:34:28.477Z,1160
2017-09-16T07:35:29.869Z,1168
2017-09-16T07:36:31.263Z,1168
2017-09-16T07:37:32.659Z,1180
2017-09-16T07:38:34.051Z,1184
2017-09-16T07:39:35.443Z,1192
2017-09-16T07:40:36.834Z,1196
2017-09-16T07:41:38.223Z,1208
2017-09-16T07:42:39.615Z,1212
2017-09-16T07:43:41.002Z,1228
2017-09-16T07:44:42.395Z,1232
2017-09-16T07:45:43.788Z,1236
2017-09-16T07:46:45.182Z,1256
2017-09-16T07:47:46.571Z,1264
2017-09-16T07:48:47.965Z,1276
2017-09-16T07:49:49.354Z,1288
2017-09-16T07:50:50.745Z,1316
2017-09-16T07:51:52.136Z,1336
2017-09-16T07:52:53.531Z,1360
2017-09-16T07:53:54.920Z,1416
2017-09-16T07:54:56.312Z,1480
2017-09-16T07:55:57.703Z,1480
2017-09-16T07:56:59.094Z,1496
2017-09-16T07:58:00.489Z,1604
2017-09-16T07:59:01.878Z,1644
2017-09-16T08:00:03.267Z,1720
2017-09-16T08:01:04.660Z,1848
2017-09-16T08:02:06.056Z,1928
2017-09-16T08:03:07.448Z,2048
2017-09-16T08:04:08.845Z,2084
2017-09-16T08:05:10.237Z,2124
2017-09-16T08:06:11.633Z,2156
2017-09-16T08:07:13.025Z,2220
2017-09-16T08:08:14.419Z,2272
2017-09-16T08:09:15.813Z,2484
2017-09-16T08:10:17.204Z,2544
2017-09-16T08:11:18.603Z,2476
2017-09-16T08:12:19.988Z,2452
2017-09-16T08:13:21.410Z,2488
2017-09-16T08:14:22.809Z,2404
2017-09-16T08:15:24.203Z,2304
2017-09-16T08:16:25.606Z,2204
2017-09-16T08:17:26.988Z,2116
2017-09-16T08:18:28.381Z,1988
2017-09-16T08:19:29.772Z,1976
2017-09-16T08:20:31.164Z,2140
2017-09-16T08:21:32.559Z,2364
2017-09-16T08:22:33.954Z,2372
2017-09-16T08:23:35.351Z,2284
2017-09-16T08:24:36.743Z,2308
2017-09-16T08:25:38.140Z,2336
2017-09-16T08:26:39.526Z,2392
2017-09-16T08:27:40.942Z,2456
2017-09-16T08:28:42.336Z,2536
2017-09-16T08:29:43.734Z,2604
2017-09-16T08:30:45.128Z,2700
2017-09-16T08:31:46.521Z,2828
2017-09-16T08:32:47.913Z,2968
2017-09-16T08:33:49.310Z,3116
2017-09-16T08:34:50.703Z,3260
2017-09-16T08:35:52.098Z,3424
2017-09-16T08:36:53.490Z,3568
2017-09-16T08:37:54.886Z,3440
2017-09-16T08:38:56.277Z,3556
2017-09-16T08:39:57.671Z,3708
2017-09-16T08:40:59.063Z,3660
2017-09-16T08:42:00.458Z,3528
2017-09-16T08:43:01.854Z,3540
2017-09-16T08:44:03.248Z,3592
2017-09-16T08:45:04.640Z,3628
2017-09-16T08:46:06.041Z,3676
2017-09-16T08:47:07.434Z,3728
2017-09-16T08:48:08.829Z,3776
2017-09-16T08:49:10.223Z,3836
2017-09-16T08:50:11.625Z,3888
2017-09-16T08:51:13.025Z,3952
2017-09-16T08:52:14.417Z,4012
2017-09-16T08:53:15.810Z,4076
2017-09-16T08:54:17.208Z,4144
2017-09-16T08:55:18.599Z,4256
2017-09-16T08:56:19.993Z,4440
2017-09-16T08:57:21.388Z,4728
2017-09-16T08:58:22.783Z,4548
2017-09-16T08:59:24.178Z,4488
2017-09-16T09:00:25.570Z,4580
2017-09-16T09:01:26.963Z,6504
2017-09-16T09:02:28.360Z,30880
2017-09-16T09:03:29.754Z,58560
2017-09-16T09:04:31.157Z,62688
2017-09-16T09:05:32.558Z,60672
2017-09-16T09:06:33.956Z,62176
2017-09-16T09:07:35.354Z,62560
2017-09-16T09:08:36.754Z,61376
2017-09-16T09:09:38.148Z,62496
2017-09-16T09:10:39.545Z,62112
2017-09-16T09:11:40.944Z,4600
2017-09-16T09:12:42.341Z,6248
2017-09-16T09:13:43.741Z,66656
2017-09-16T09:14:45.137Z,9412
2017-09-16T09:15:46.535Z,68032
2017-09-16T09:16:47.933Z,57536
2017-09-16T09:17:49.368Z,21600
2017-09-16T09:18:50.787Z,13060
2017-09-16T09:19:52.191Z,7260
2017-09-16T09:20:53.593Z,18688
2017-09-16T09:21:54.988Z,14168
2017-09-16T09:22:56.385Z,13556
2017-09-16T09:23:57.784Z,6212
2017-09-16T09:24:59.181Z,12280
2017-09-16T09:26:00.583Z,17504
2017-09-16T09:27:01.983Z,43744
2017-09-16T09:28:03.387Z,63552
2017-09-16T09:29:04.782Z,5280
2017-09-16T09:30:06.178Z,2412
2017-09-16T09:31:07.581Z,65376
2017-09-16T09:32:08.985Z,63328
2017-09-16T09:33:10.384Z,64544
2017-09-16T09:34:11.786Z,62656
2017-09-16T09:35:13.192Z,62624
2017-09-16T09:36:14.588Z,64224
2017-09-16T09:37:15.986Z,63744
2017-09-16T09:38:17.387Z,41440
2017-09-16T09:39:18.789Z,15308
2017-09-16T09:40:20.194Z,9720
2017-09-16T09:41:21.597Z,9580
2017-09-16T09:42:23.000Z,10048
2017-09-16T09:43:24.400Z,9988
2017-09-16T09:44:25.802Z,9368
2017-09-16T09:45:27.205Z,9076
2017-09-16T09:46:28.607Z,9356
2017-09-16T09:47:30.009Z,10176
2017-09-16T09:48:31.411Z,10516
2017-09-16T09:49:32.815Z,21536
2017-09-16T09:50:34.210Z,32352
2017-09-16T09:51:35.611Z,15412
2017-09-16T09:52:37.011Z,2504
2017-09-16T09:53:38.411Z,73088
2017-09-16T09:54:39.820Z,78816
2017-09-16T09:55:41.221Z,79552
2017-09-16T09:56:42.625Z,74496
2017-09-16T09:57:44.027Z,71520
2017-09-16T09:58:45.426Z,73408
2017-09-16T09:59:46.827Z,72928
2017-09-16T10:00:48.233Z,55232
2017-09-16T10:01:49.633Z,31552
2017-09-16T10:02:51.035Z,17216
2017-09-16T10:03:52.439Z,3796
2017-09-16T10:04:53.840Z,2644
2017-09-16T10:05:55.244Z,12672
2017-09-16T10:06:56.652Z,12856
2017-09-16T10:07:58.045Z,9548
2017-09-16T10:08:59.452Z,3352
2017-09-16T10:10:00.858Z,13088
2017-09-16T10:11:02.260Z,12916
2017-09-16T10:12:03.661Z,12772
2017-09-16T10:13:05.060Z,12896
2017-09-16T10:14:06.462Z,13216
2017-09-16T10:15:07.860Z,13456
2017-09-16T10:16:09.261Z,13920
2017-09-16T10:17:10.666Z,14644
2017-09-16T10:18:12.070Z,15520
2017-09-16T10:19:13.470Z,16096
2017-09-16T10:20:14.870Z,16064
2017-09-16T10:21:16.273Z,12584
2017-09-16T10:22:17.673Z,14756
2017-09-16T10:23:19.075Z,14412
2017-09-16T10:24:20.475Z,14184
2017-09-16T10:25:21.886Z,14784
2017-09-16T10:26:23.284Z,15120
2017-09-16T10:27:24.692Z,15476
2017-09-16T10:28:26.094Z,15564
2017-09-16T10:29:27.495Z,16160
2017-09-16T10:30:28.897Z,16352
2017-09-16T10:31:30.299Z,13268
2017-09-16T10:32:31.699Z,15608
2017-09-16T10:33:33.102Z,16416
2017-09-16T10:34:34.503Z,16768
2017-09-16T10:35:35.901Z,17280
2017-09-16T10:36:37.301Z,17728
2017-09-16T10:37:38.702Z,18048
2017-09-16T10:38:40.102Z,18464
2017-09-16T10:39:41.506Z,10324
2017-09-16T10:40:42.903Z,17056
2017-09-16T10:41:44.303Z,16736
2017-09-16T10:42:45.702Z,17024
2017-09-16T10:43:47.103Z,17088
2017-09-16T10:44:48.502Z,17344
2017-09-16T10:45:49.906Z,17472
2017-09-16T10:46:51.307Z,18304
2017-09-16T10:47:52.715Z,16480
2017-09-16T10:48:54.113Z,11768
2017-09-16T10:49:55.512Z,18112
2017-09-16T10:50:56.911Z,17952
2017-09-16T10:51:58.314Z,18272
2017-09-16T10:52:59.714Z,18848
2017-09-16T10:54:01.112Z,18560
2017-09-16T10:55:02.514Z,19168
2017-09-16T10:56:03.913Z,11384
2017-09-16T10:57:05.315Z,18848
2017-09-16T10:58:06.707Z,18592
2017-09-16T10:59:08.168Z,18464
2017-09-16T11:00:09.579Z,18784
2017-09-16T11:01:10.983Z,18752
2017-09-16T11:02:12.383Z,19200
2017-09-16T11:03:13.779Z,19456
2017-09-16T11:04:15.179Z,20032
2017-09-16T11:05:16.583Z,20320
2017-09-16T11:06:17.990Z,20448
2017-09-16T11:07:19.391Z,20736
2017-09-16T11:08:20.792Z,21504
2017-09-16T11:09:22.193Z,21856
2017-09-16T11:10:23.591Z,16576
2017-09-16T11:11:24.989Z,9272
2017-09-16T11:12:26.387Z,5052
2017-09-16T11:13:27.785Z,4588
2017-09-16T11:14:29.148Z,5084
2017-09-16T11:15:30.549Z,23328
2017-09-16T11:16:31.948Z,24128
2017-09-16T11:17:33.345Z,19008
2017-09-16T11:18:34.749Z,23584
2017-09-16T11:19:36.145Z,23488
2017-09-16T11:20:37.546Z,23296
2017-09-16T11:21:38.947Z,20032
2017-09-16T11:22:40.350Z,24064
2017-09-16T11:23:41.748Z,23680
2017-09-16T11:24:43.147Z,23488
2017-09-16T11:25:44.547Z,23648
2017-09-16T11:26:45.946Z,24736
2017-09-16T11:27:47.347Z,7592
2017-09-16T11:28:48.747Z,5560
2017-09-16T11:29:50.148Z,4224
2017-09-16T11:30:51.544Z,4376
2017-09-16T11:31:52.941Z,4696
2017-09-16T11:32:54.345Z,12500
2017-09-16T11:33:55.741Z,8172
2017-09-16T11:34:57.141Z,4624
2017-09-16T11:35:58.541Z,4328
2017-09-16T11:36:59.942Z,4768
2017-09-16T11:38:01.340Z,4948
2017-09-16T11:39:02.741Z,5972
2017-09-16T11:40:04.138Z,8392
2017-09-16T11:41:05.535Z,7580
2017-09-16T11:42:06.935Z,12444
2017-09-16T11:43:08.333Z,5396
2017-09-16T11:44:09.734Z,6404
2017-09-16T11:45:11.127Z,4888
2017-09-16T11:46:12.525Z,4572
2017-09-16T11:47:13.922Z,4032
2017-09-16T11:48:15.321Z,3756
2017-09-16T11:49:16.734Z,3680
2017-09-16T11:50:18.144Z,3592
2017-09-16T11:51:19.550Z,3664
2017-09-16T11:52:20.939Z,3940
2017-09-16T11:53:22.337Z,4484
2017-09-16T11:54:23.737Z,4544
2017-09-16T11:55:25.132Z,4648
2017-09-16T11:56:26.532Z,4476
2017-09-16T11:57:27.935Z,4168
2017-09-16T11:58:29.333Z,4168
2017-09-16T11:59:30.728Z,4516
2017-09-16T12:00:32.124Z,5188
2017-09-16T12:01:33.522Z,8096
2017-09-16T12:02:34.918Z,7416
2017-09-16T12:03:36.316Z,7836
2017-09-16T12:04:37.719Z,7248
2017-09-16T12:05:39.142Z,6496
2017-09-16T12:06:40.534Z,6260
2017-09-16T12:07:41.930Z,5300
2017-09-16T12:08:43.329Z,4784
2017-09-16T12:09:44.732Z,4408
2017-09-16T12:10:46.125Z,4080
2017-09-16T12:11:47.525Z,3944
2017-09-16T12:12:48.922Z,3864
2017-09-16T12:13:50.321Z,3648
2017-09-16T12:14:51.733Z,3752
2017-09-16T12:15:53.106Z,4132
2017-09-16T12:16:54.503Z,4736
2017-09-16T12:17:55.900Z,5412
2017-09-16T12:18:57.297Z,6376
2017-09-16T12:19:58.695Z,7728
2017-09-16T12:21:00.097Z,8104
2017-09-16T12:22:01.562Z,7064
2017-09-16T12:23:02.953Z,6344
2017-09-16T12:24:04.351Z,5820
2017-09-16T12:25:05.747Z,5668
2017-09-16T12:26:07.149Z,16160
2017-09-16T12:27:08.548Z,20896
2017-09-16T12:28:09.943Z,20768
2017-09-16T12:29:11.341Z,16416
2017-09-16T12:30:12.743Z,7428
2017-09-16T12:31:14.134Z,20800
2017-09-16T12:32:15.530Z,5888
2017-09-16T12:33:16.928Z,5116
2017-09-16T12:34:18.326Z,4656
2017-09-16T12:35:19.721Z,4236
2017-09-16T12:36:21.119Z,4252
2017-09-16T12:37:22.515Z,4384
2017-09-16T12:38:23.912Z,4744
2017-09-16T12:39:25.307Z,5800
2017-09-16T12:40:26.767Z,7572
2017-09-16T12:41:28.175Z,7528
2017-09-16T12:42:29.570Z,9200
2017-09-16T12:43:30.965Z,7368
2017-09-16T12:44:32.362Z,20096
2017-09-16T12:45:33.762Z,15304
2017-09-16T12:46:35.159Z,6896
2017-09-16T12:47:36.556Z,7552
2017-09-16T12:48:37.956Z,9464
2017-09-16T12:49:39.356Z,20192
2017-09-16T12:50:40.753Z,19616
2017-09-16T12:51:42.154Z,16832
2017-09-16T12:52:43.550Z,7736
2017-09-16T12:53:44.948Z,16768
2017-09-16T12:54:46.347Z,12324
2017-09-16T12:55:47.745Z,18752
2017-09-16T12:56:49.146Z,6016
2017-09-16T12:57:50.542Z,17792
2017-09-16T12:58:51.959Z,18624
2017-09-16T12:59:53.359Z,7880
2017-09-16T13:00:54.757Z,5516
2017-09-16T13:01:56.159Z,5496
2017-09-16T13:02:57.558Z,5412
2017-09-16T13:03:58.952Z,5384
2017-09-16T13:05:00.351Z,5552
2017-09-16T13:06:01.749Z,6296
2017-09-16T13:07:03.146Z,8088
2017-09-16T13:08:04.586Z,9196
2017-09-16T13:09:05.944Z,6156
2017-09-16T13:10:07.348Z,6812
2017-09-16T13:11:08.742Z,6680
2017-09-16T13:12:10.142Z,8284
2017-09-16T13:13:11.540Z,7684
2017-09-16T13:14:12.937Z,6572
2017-09-16T13:15:14.333Z,6208
2017-09-16T13:16:15.734Z,6100
2017-09-16T13:17:17.135Z,6032
2017-09-16T13:18:18.529Z,5896
2017-09-16T13:19:19.925Z,5772
2017-09-16T13:20:21.323Z,5520
2017-09-16T13:21:22.727Z,5848
2017-09-16T13:22:24.119Z,5632
2017-09-16T13:23:25.517Z,5752
2017-09-16T13:24:26.917Z,5556
2017-09-16T13:25:28.316Z,5908
2017-09-16T13:26:29.714Z,16512
2017-09-16T13:27:31.113Z,16064
2017-09-16T13:28:32.512Z,15776
2017-09-16T13:29:34.017Z,15552
2017-09-16T13:30:35.433Z,14556
2017-09-16T13:31:36.836Z,14068
2017-09-16T13:32:38.234Z,13976
2017-09-16T13:33:39.629Z,13908
2017-09-16T13:34:41.025Z,13732
2017-09-16T13:35:42.424Z,13608
2017-09-16T13:36:43.823Z,13428
2017-09-16T13:37:45.227Z,13340
2017-09-16T13:38:46.626Z,12272
2017-09-16T13:39:48.026Z,4512
2017-09-16T13:40:49.422Z,2860
2017-09-16T13:41:50.819Z,2660
2017-09-16T13:42:52.219Z,2528
2017-09-16T13:43:53.616Z,2452
2017-09-16T13:44:55.025Z,2460
2017-09-16T13:45:56.427Z,2476
2017-09-16T13:46:57.825Z,2352
2017-09-16T13:47:59.224Z,2220
2017-09-16T13:49:00.621Z,2168
2017-09-16T13:50:02.020Z,2116
2017-09-16T13:51:03.416Z,2228
2017-09-16T13:52:04.818Z,2284
2017-09-16T13:53:06.228Z,2460
2017-09-16T13:54:07.624Z,3148
2017-09-16T13:55:09.023Z,3000
2017-09-16T13:56:10.417Z,4048
2017-09-16T13:57:11.816Z,9428
2017-09-16T13:58:13.214Z,5384
2017-09-16T13:59:14.613Z,6548
2017-09-16T14:00:16.013Z,13616
2017-09-16T14:01:17.410Z,14240
2017-09-16T14:02:18.806Z,14008
2017-09-16T14:03:20.203Z,13524
2017-09-16T14:04:21.602Z,11612
2017-09-16T14:05:22.999Z,12428
2017-09-16T14:06:24.401Z,11964